Thursday, April 24, 2014
13:06 UTC
  |  Log In   |  Register Free
Airport Search:

Jackson-Evers International Airport
(KJAN)

FAA data valid effective April 3, 2014 until May 29, 2014 (unless otherwise noted).

 
 
 
 
 
 
 
 
 
 
 
 
 
 

Current Aviation Weather for Jackson-Evers International Airport (KJAN)

The most recent METAR observation for KJAN was updated at: 1254 UTC
METAR Summary (Translated METAR)
KJAN
241254Z 00000KT 10SM SCT250 17/13 A2995 RMK AO2 SLP138 T01670133
KHKS
(7.6 nm NW from KJAN)
241253Z 00000KT 10SM CLR 17/12 A2995 RMK AO2 SLP134 T01720122
TAF Summary (Translated TAF)
KJAN
241120Z 2412/2512 17005KT P6SM SKC FM241800 18008G16KT P6SM SCT050 BKN250 FM250200 17010KT P6SM BKN050 FM250500 19008KT P6SM OVC025 FM251000 27005KT P6SM BKN040
KHKS
(7.6 nm NW from KJAN)
241120Z 2412/2512 12004KT P6SM SKC FM241500 18008G16KT P6SM SCT050 BKN250 FM250200 17010KT P6SM BKN050 FM250500 19008KT P6SM OVC025 FM251000 27005KT P6SM BKN040
  Airport Weather Conditions for KJAN

 Current Weather at JAN
55° F
Partly Cloudy
North winds at 0.0 mph
JAN NOAA Radar

Pressure: 29.94 in
Humidity: 90%
Wind: Calm
Dew Point: 52.0°F
Visibility: 10.00 mi


Airport Weather Forecast for KJAN

Translated METAR and TAF for KJAN
Translated METAR for KJAN (1306 UTC 24 April 2014)
found at http://aviationweather.gov/adds/metars/
 
METAR text: KJAN 241254Z 00000KT 10SM SCT250 17/13 A2995 RMK AO2 SLP138 T01670133
Conditions at: KJAN (JACKSON , MS, US) observed 1254 UTC 24 April 2014
Temperature: 16.7°C (62°F)
Dewpoint: 13.3°C (56°F) [RH = 80%]
Pressure (altimeter): 29.95 inches Hg (1014.3 mb)
[Sea-level pressure: 1013.8 mb]
Winds: calm
Visibility: 10 or more miles (16+ km)
Ceiling: at least 12,000 feet AGL
Clouds: scattered clouds at 25000 feet AGL
Weather: no significant weather observed at this time
Translated TAF for KJAN
Forecast for: KJAN (JACKSON , MS, US)
TAF Text: KJAN 241120Z 2412/2512 17005KT P6SM SKC
Forecast period: 1200 to 1800 UTC 24 April 2014
Forecast type: FROM: standard forecast or significant change
Winds: from the S (170 degrees) at 6 MPH (5 knots; 2.6 m/s)
Visibility: 6 or more miles (10+ km)
Clouds: clear skies
Weather: no significant weather forecast for this period
TAF Text: FM241800 18008G16KT P6SM SCT050 BKN250
Forecast period: 1800 UTC 24 April 2014 to 0200 UTC 25 April 2014
Forecast type: FROM: standard forecast or significant change
Winds: from the S (180 degrees) at 9 MPH (8 knots; 4.2 m/s)
gusting to 18 MPH (16 knots; 8.3 m/s)
Visibility: 6 or more miles (10+ km)
Ceiling: 25000 feet AGL
Clouds: scattered clouds at 5000 feet AGL
broken clouds at 25000 feet AGL
Weather: no significant weather forecast for this period
TAF Text: FM250200 17010KT P6SM BKN050
Forecast period: 0200 to 0500 UTC 25 April 2014
Forecast type: FROM: standard forecast or significant change
Winds: from the S (170 degrees) at 12 MPH (10 knots; 5.2 m/s)
Visibility: 6 or more miles (10+ km)
Ceiling: 5000 feet AGL
Clouds: broken clouds at 5000 feet AGL
Weather: no significant weather forecast for this period
TAF Text: FM250500 19008KT P6SM OVC025
Forecast period: 0500 to 1000 UTC 25 April 2014
Forecast type: FROM: standard forecast or significant change
Winds: from the S (190 degrees) at 9 MPH (8 knots; 4.2 m/s)
Visibility: 6 or more miles (10+ km)
Ceiling: 2500 feet AGL
Clouds: overcast cloud deck at 2500 feet AGL
Weather: no significant weather forecast for this period
TAF Text: FM251000 27005KT P6SM BKN040
Forecast period: 1000 to 1200 UTC 25 April 2014
Forecast type: FROM: standard forecast or significant change
Winds: from the W (270 degrees) at 6 MPH (5 knots; 2.6 m/s)
Visibility: 6 or more miles (10+ km)
Ceiling: 4000 feet AGL
Clouds: broken clouds at 4000 feet AGL
Weather: no significant weather forecast for this period

Find All Airport Services Find A Hotel Find A Rental Car Find A Golf Course Find A Restaurant $100 Hamburger



FBO's on the Field
FBO Company Facility Photos Services Transportation Aviation Fuel Prices: Prices include tax
Catering Weather Repair Courtesy Rental Type 100LL JetA JetA+ MOGAS 8087
 
Atlantic Aviation

This FBO has not yet been rated
FS:Chevron
Last Updated: Apr-23
Login to update fuel prices
SS:
Contact Atlantic AviationMore FBO Information
 
Add another FBO Facility Photos Catering Weather Repair Courtesy Rental Type 100LL JetA JetA+ MOGAS 8087
Services Transportation Aviation Fuel Prices: Prices include tax


GlobalAir.com Airport Resource Center model-print
model-print
model-print
model-print